< < Back
Terminal Aerodrome Forecast


Current Version              Previous Versions:   1  2  3  4  5  6  7  8  9  

Terminal Aerodrome Forecast

875
FTUS44 KMOB 060533
TAFMOB
TAF
KMOB 060533Z 0606/0706 30004KT P6SM SKC
     FM061500 01008KT P6SM SKC
     FM070300 35003KT P6SM SKC=

Latest METAR

216
SAUS80 KWBC 070000 RRA
MTRMOB
METAR KMOB 062356Z 34006KT 10SM CLR 22/09 A2997 RMK AO2 SLP148 T02220089
10244 20217 55003


USA.gov is the U.S. government's official web portal to all federal, state and local government web resources and services.